メインページ
METAR-TAF:

METAR-TAF

空港 :

イーラーム, イラン

緯度: 33-35-09N, 経度: 046-24-20E, 海抜: 1334m

現時点の気象観測

当レポートは36分前の18:00(UTC)に作成
東/北東の風 4kt
気温 8°C
湿度 31%
気圧 1022 hPa
視程10km以上
1,500メートル以下は雲なし、積乱雲なし

METAR: OICI 171800Z 06004KT CAVOK 08/M08 Q1021 A3017

時間: 22:06 (18:36 UTC)

予報

当レポートは7時間6分前の11:30(UTC)に作成
予報は17日の 12時(UTC)から 18日の 18時(UTC)まで有効
東/北東の風 10kt
視程: 7000m
高度3500ftの雲はほとんどない
高度10000ftの雲は散在している
17日の 12時(UTC)から 17日の 18時(UTC)まで一時的に
高度3500ftの雲はほとんどない, 積乱雲.
高度4000ftの雲は散在している
高度10000ftの千切れ雲あり

TAF: OICI 171130Z 1712/1818 06010KT 7000 FEW035 SCT100 TEMPO 1712/1718 FEW035CB SCT040 BKN100

4,000以上の空港の気象観測と天気予報(METAR報とTAF報)

利用可能な観測所は地図上に黄色い丸と赤い丸で示す。

丸の上にカーソルを重ねると観測所名を参照できる。

次にクリックすると気象観測と天気予報を参照できる。

マップの切り替え:黒色「×」印の緑ボタンをクリックして拡大、「-」印の緑ボタンをクリックして縮小、緑色の三角印をクリックして隣りの地図に切り替え


METAR-TAF: